sensor_id;sensor_type;location;lat;lon;timestamp;P1;durP1;ratioP1;P2;durP2;ratioP2
27412;SDS011;14871;52.702;5.230;2023-10-31T00:00:16;8.25;;;4.43;;
27412;SDS011;14871;52.702;5.230;2023-10-31T00:02:42;7.53;;;4.38;;
27412;SDS011;14871;52.702;5.230;2023-10-31T00:05:08;8.18;;;4.28;;
27412;SDS011;14871;52.702;5.230;2023-10-31T00:07:33;9.98;;;4.60;;
27412;SDS011;14871;52.702;5.230;2023-10-31T00:09:59;7.43;;;3.83;;
27412;SDS011;14871;52.702;5.230;2023-10-31T00:12:25;8.20;;;4.20;;
27412;SDS011;14871;52.702;5.230;2023-10-31T00:14:50;11.70;;;4.15;;
27412;SDS011;14871;52.702;5.230;2023-10-31T00:17:16;8.90;;;3.78;;
27412;SDS011;14871;52.702;5.230;2023-10-31T00:19:41;6.82;;;3.63;;
27412;SDS011;14871;52.702;5.230;2023-10-31T00:22:09;12.35;;;4.35;;
27412;SDS011;14871;52.702;5.230;2023-10-31T00:24:35;8.95;;;3.33;;
27412;SDS011;14871;52.702;5.230;2023-10-31T00:27:00;7.72;;;3.20;;
27412;SDS011;14871;52.702;5.230;2023-10-31T00:29:26;12.38;;;3.47;;
27412;SDS011;14871;52.702;5.230;2023-10-31T00:31:52;7.10;;;3.05;;
27412;SDS011;14871;52.702;5.230;2023-10-31T00:34:17;7.45;;;3.35;;
27412;SDS011;14871;52.702;5.230;2023-10-31T00:36:43;5.72;;;2.97;;
27412;SDS011;14871;52.702;5.230;2023-10-31T00:39:09;6.35;;;2.70;;
27412;SDS011;14871;52.702;5.230;2023-10-31T00:41:35;8.20;;;2.90;;
27412;SDS011;14871;52.702;5.230;2023-10-31T00:44:00;6.13;;;2.28;;
27412;SDS011;14871;52.702;5.230;2023-10-31T00:46:26;6.53;;;2.65;;
27412;SDS011;14871;52.702;5.230;2023-10-31T00:48:52;8.18;;;2.40;;
27412;SDS011;14871;52.702;5.230;2023-10-31T00:51:17;6.75;;;2.42;;
27412;SDS011;14871;52.702;5.230;2023-10-31T00:53:43;6.25;;;2.40;;
27412;SDS011;14871;52.702;5.230;2023-10-31T00:56:08;4.65;;;2.65;;
27412;SDS011;14871;52.702;5.230;2023-10-31T00:58:34;7.10;;;2.38;;
27412;SDS011;14871;52.702;5.230;2023-10-31T01:01:00;7.43;;;2.40;;
27412;SDS011;14871;52.702;5.230;2023-10-31T01:03:25;6.88;;;2.10;;
27412;SDS011;14871;52.702;5.230;2023-10-31T01:05:51;8.38;;;2.08;;
27412;SDS011;14871;52.702;5.230;2023-10-31T01:08:16;9.70;;;2.33;;
27412;SDS011;14871;52.702;5.230;2023-10-31T01:10:42;6.65;;;2.10;;
27412;SDS011;14871;52.702;5.230;2023-10-31T01:13:08;6.75;;;1.73;;
27412;SDS011;14871;52.702;5.230;2023-10-31T01:15:33;5.97;;;2.00;;
27412;SDS011;14871;52.702;5.230;2023-10-31T01:17:59;4.15;;;1.70;;
27412;SDS011;14871;52.702;5.230;2023-10-31T01:20:24;5.85;;;1.70;;
27412;SDS011;14871;52.702;5.230;2023-10-31T01:22:50;6.18;;;1.85;;
27412;SDS011;14871;52.702;5.230;2023-10-31T01:25:16;8.00;;;1.70;;
27412;SDS011;14871;52.702;5.230;2023-10-31T01:27:42;6.32;;;1.55;;
27412;SDS011;14871;52.702;5.230;2023-10-31T01:30:08;5.45;;;1.38;;
27412;SDS011;14871;52.702;5.230;2023-10-31T01:32:34;5.07;;;1.75;;
27412;SDS011;14871;52.702;5.230;2023-10-31T01:34:59;5.03;;;1.60;;
27412;SDS011;14871;52.702;5.230;2023-10-31T01:37:25;5.78;;;2.38;;
27412;SDS011;14871;52.702;5.230;2023-10-31T01:39:51;3.63;;;1.58;;
27412;SDS011;14871;52.702;5.230;2023-10-31T01:42:17;5.47;;;1.88;;
27412;SDS011;14871;52.702;5.230;2023-10-31T01:44:43;8.20;;;1.88;;
27412;SDS011;14871;52.702;5.230;2023-10-31T01:47:09;5.18;;;1.83;;
27412;SDS011;14871;52.702;5.230;2023-10-31T01:49:35;6.00;;;1.80;;
27412;SDS011;14871;52.702;5.230;2023-10-31T01:52:02;6.90;;;1.90;;
27412;SDS011;14871;52.702;5.230;2023-10-31T01:54:29;6.78;;;2.10;;
27412;SDS011;14871;52.702;5.230;2023-10-31T01:56:55;9.50;;;2.55;;
27412;SDS011;14871;52.702;5.230;2023-10-31T01:59:26;5.75;;;2.30;;
27412;SDS011;14871;52.702;5.230;2023-10-31T02:01:52;8.52;;;2.05;;
27412;SDS011;14871;52.702;5.230;2023-10-31T02:04:19;9.85;;;2.70;;
27412;SDS011;14871;52.702;5.230;2023-10-31T02:06:45;7.80;;;2.53;;
27412;SDS011;14871;52.702;5.230;2023-10-31T02:09:11;10.88;;;3.15;;
27412;SDS011;14871;52.702;5.230;2023-10-31T02:11:37;9.75;;;3.13;;
27412;SDS011;14871;52.702;5.230;2023-10-31T02:14:02;10.13;;;2.95;;
27412;SDS011;14871;52.702;5.230;2023-10-31T02:16:28;11.95;;;3.13;;
27412;SDS011;14871;52.702;5.230;2023-10-31T02:18:54;10.75;;;3.30;;
27412;SDS011;14871;52.702;5.230;2023-10-31T02:21:19;12.18;;;3.80;;
27412;SDS011;14871;52.702;5.230;2023-10-31T02:26:40;10.03;;;3.67;;
27412;SDS011;14871;52.702;5.230;2023-10-31T02:29:06;10.07;;;3.58;;
27412;SDS011;14871;52.702;5.230;2023-10-31T02:31:32;9.82;;;4.50;;
27412;SDS011;14871;52.702;5.230;2023-10-31T02:33:57;7.82;;;4.07;;
27412;SDS011;14871;52.702;5.230;2023-10-31T02:36:23;11.73;;;4.53;;
27412;SDS011;14871;52.702;5.230;2023-10-31T02:38:49;9.48;;;4.45;;
27412;SDS011;14871;52.702;5.230;2023-10-31T02:41:15;13.00;;;4.28;;
27412;SDS011;14871;52.702;5.230;2023-10-31T02:43:41;11.07;;;4.80;;
27412;SDS011;14871;52.702;5.230;2023-10-31T02:46:06;10.93;;;4.38;;
27412;SDS011;14871;52.702;5.230;2023-10-31T02:48:32;7.95;;;4.07;;
27412;SDS011;14871;52.702;5.230;2023-10-31T02:51:04;8.23;;;3.72;;
27412;SDS011;14871;52.702;5.230;2023-10-31T02:53:30;7.85;;;3.85;;
27412;SDS011;14871;52.702;5.230;2023-10-31T02:55:56;6.82;;;3.60;;
27412;SDS011;14871;52.702;5.230;2023-10-31T02:58:21;6.57;;;3.00;;
27412;SDS011;14871;52.702;5.230;2023-10-31T03:00:47;7.82;;;2.90;;
27412;SDS011;14871;52.702;5.230;2023-10-31T03:03:13;7.85;;;2.40;;
27412;SDS011;14871;52.702;5.230;2023-10-31T03:05:38;7.60;;;2.15;;
27412;SDS011;14871;52.702;5.230;2023-10-31T03:08:04;5.30;;;1.73;;
27412;SDS011;14871;52.702;5.230;2023-10-31T03:10:29;6.90;;;2.10;;
27412;SDS011;14871;52.702;5.230;2023-10-31T03:12:55;4.88;;;1.75;;
27412;SDS011;14871;52.702;5.230;2023-10-31T03:15:21;5.28;;;2.00;;
27412;SDS011;14871;52.702;5.230;2023-10-31T03:17:46;7.10;;;1.42;;
27412;SDS011;14871;52.702;5.230;2023-10-31T03:20:12;3.35;;;1.27;;
27412;SDS011;14871;52.702;5.230;2023-10-31T03:22:37;5.88;;;1.60;;
27412;SDS011;14871;52.702;5.230;2023-10-31T03:25:03;6.55;;;1.25;;
27412;SDS011;14871;52.702;5.230;2023-10-31T03:27:29;3.42;;;1.20;;
27412;SDS011;14871;52.702;5.230;2023-10-31T03:29:55;3.63;;;0.93;;
27412;SDS011;14871;52.702;5.230;2023-10-31T03:32:20;2.67;;;0.70;;
27412;SDS011;14871;52.702;5.230;2023-10-31T03:34:46;4.18;;;0.73;;
27412;SDS011;14871;52.702;5.230;2023-10-31T03:37:11;2.47;;;0.80;;
27412;SDS011;14871;52.702;5.230;2023-10-31T03:39:37;3.05;;;0.93;;
27412;SDS011;14871;52.702;5.230;2023-10-31T03:42:03;2.65;;;0.93;;
27412;SDS011;14871;52.702;5.230;2023-10-31T03:44:30;4.20;;;0.80;;
27412;SDS011;14871;52.702;5.230;2023-10-31T03:46:55;2.88;;;0.80;;
27412;SDS011;14871;52.702;5.230;2023-10-31T03:49:21;3.83;;;0.70;;
27412;SDS011;14871;52.702;5.230;2023-10-31T03:51:47;1.05;;;0.35;;
27412;SDS011;14871;52.702;5.230;2023-10-31T03:54:13;5.90;;;0.88;;
27412;SDS011;14871;52.702;5.230;2023-10-31T03:56:42;2.85;;;0.70;;
27412;SDS011;14871;52.702;5.230;2023-10-31T03:59:08;0.73;;;0.40;;
27412;SDS011;14871;52.702;5.230;2023-10-31T04:01:34;3.10;;;0.57;;
27412;SDS011;14871;52.702;5.230;2023-10-31T04:04:00;3.72;;;0.68;;
27412;SDS011;14871;52.702;5.230;2023-10-31T04:06:25;2.35;;;0.60;;
27412;SDS011;14871;52.702;5.230;2023-10-31T04:08:51;2.00;;;0.50;;
27412;SDS011;14871;52.702;5.230;2023-10-31T04:11:17;2.80;;;0.45;;
27412;SDS011;14871;52.702;5.230;2023-10-31T04:13:42;2.72;;;0.55;;
27412;SDS011;14871;52.702;5.230;2023-10-31T04:16:08;1.52;;;0.70;;
27412;SDS011;14871;52.702;5.230;2023-10-31T04:18:34;7.35;;;0.90;;
27412;SDS011;14871;52.702;5.230;2023-10-31T04:21:00;3.97;;;1.50;;
27412;SDS011;14871;52.702;5.230;2023-10-31T04:23:26;4.95;;;2.22;;
27412;SDS011;14871;52.702;5.230;2023-10-31T04:25:51;7.95;;;2.92;;
27412;SDS011;14871;52.702;5.230;2023-10-31T04:28:17;3.60;;;2.42;;
27412;SDS011;14871;52.702;5.230;2023-10-31T04:30:43;9.93;;;3.13;;
27412;SDS011;14871;52.702;5.230;2023-10-31T04:33:09;5.70;;;2.67;;
27412;SDS011;14871;52.702;5.230;2023-10-31T04:35:34;6.30;;;3.33;;
27412;SDS011;14871;52.702;5.230;2023-10-31T04:38:00;6.15;;;2.40;;
27412;SDS011;14871;52.702;5.230;2023-10-31T04:40:25;5.93;;;2.85;;
27412;SDS011;14871;52.702;5.230;2023-10-31T04:42:51;6.97;;;2.78;;
27412;SDS011;14871;52.702;5.230;2023-10-31T04:45:16;7.70;;;3.20;;
27412;SDS011;14871;52.702;5.230;2023-10-31T04:47:42;7.60;;;2.97;;
27412;SDS011;14871;52.702;5.230;2023-10-31T04:50:08;8.05;;;3.60;;
27412;SDS011;14871;52.702;5.230;2023-10-31T04:52:34;7.10;;;3.30;;
27412;SDS011;14871;52.702;5.230;2023-10-31T04:54:59;6.03;;;3.15;;
27412;SDS011;14871;52.702;5.230;2023-10-31T04:57:25;6.75;;;3.92;;
27412;SDS011;14871;52.702;5.230;2023-10-31T04:59:50;6.75;;;3.53;;
27412;SDS011;14871;52.702;5.230;2023-10-31T05:02:20;8.57;;;4.20;;
27412;SDS011;14871;52.702;5.230;2023-10-31T05:04:46;7.07;;;4.25;;
27412;SDS011;14871;52.702;5.230;2023-10-31T05:07:15;9.18;;;4.70;;
27412;SDS011;14871;52.702;5.230;2023-10-31T05:09:44;8.02;;;4.25;;
27412;SDS011;14871;52.702;5.230;2023-10-31T05:12:10;11.60;;;3.63;;
27412;SDS011;14871;52.702;5.230;2023-10-31T05:14:36;6.53;;;3.58;;
27412;SDS011;14871;52.702;5.230;2023-10-31T05:17:02;6.88;;;2.90;;
27412;SDS011;14871;52.702;5.230;2023-10-31T05:19:28;7.32;;;2.88;;
27412;SDS011;14871;52.702;5.230;2023-10-31T05:21:53;11.38;;;2.53;;
27412;SDS011;14871;52.702;5.230;2023-10-31T05:24:19;6.50;;;2.95;;
27412;SDS011;14871;52.702;5.230;2023-10-31T05:26:44;4.63;;;1.90;;
27412;SDS011;14871;52.702;5.230;2023-10-31T05:29:10;7.45;;;2.58;;
27412;SDS011;14871;52.702;5.230;2023-10-31T05:31:36;8.23;;;2.42;;
27412;SDS011;14871;52.702;5.230;2023-10-31T05:34:02;6.00;;;2.28;;
27412;SDS011;14871;52.702;5.230;2023-10-31T05:36:31;7.05;;;2.60;;
27412;SDS011;14871;52.702;5.230;2023-10-31T05:38:57;8.43;;;2.72;;
27412;SDS011;14871;52.702;5.230;2023-10-31T05:41:23;9.40;;;2.10;;
27412;SDS011;14871;52.702;5.230;2023-10-31T05:43:49;4.55;;;2.03;;
27412;SDS011;14871;52.702;5.230;2023-10-31T05:46:14;5.38;;;1.80;;
27412;SDS011;14871;52.702;5.230;2023-10-31T05:48:44;5.72;;;1.73;;
27412;SDS011;14871;52.702;5.230;2023-10-31T05:51:11;3.90;;;1.30;;
27412;SDS011;14871;52.702;5.230;2023-10-31T05:53:41;7.55;;;1.70;;
27412;SDS011;14871;52.702;5.230;2023-10-31T05:56:08;6.55;;;1.40;;
27412;SDS011;14871;52.702;5.230;2023-10-31T05:58:34;5.43;;;1.40;;
27412;SDS011;14871;52.702;5.230;2023-10-31T06:01:01;5.85;;;1.90;;
27412;SDS011;14871;52.702;5.230;2023-10-31T06:03:27;3.67;;;1.08;;
27412;SDS011;14871;52.702;5.230;2023-10-31T06:05:53;3.80;;;0.93;;
27412;SDS011;14871;52.702;5.230;2023-10-31T06:08:18;4.97;;;1.10;;
27412;SDS011;14871;52.702;5.230;2023-10-31T06:10:44;4.65;;;0.80;;
27412;SDS011;14871;52.702;5.230;2023-10-31T06:13:10;3.38;;;0.70;;
27412;SDS011;14871;52.702;5.230;2023-10-31T06:15:35;5.70;;;1.05;;
27412;SDS011;14871;52.702;5.230;2023-10-31T06:18:01;9.73;;;1.08;;
27412;SDS011;14871;52.702;5.230;2023-10-31T06:20:28;4.35;;;1.00;;
27412;SDS011;14871;52.702;5.230;2023-10-31T06:22:53;2.95;;;0.90;;
27412;SDS011;14871;52.702;5.230;2023-10-31T06:25:19;5.85;;;0.90;;
27412;SDS011;14871;52.702;5.230;2023-10-31T06:27:45;7.40;;;0.85;;
27412;SDS011;14871;52.702;5.230;2023-10-31T06:30:10;3.20;;;1.02;;
27412;SDS011;14871;52.702;5.230;2023-10-31T06:32:36;4.13;;;1.05;;
27412;SDS011;14871;52.702;5.230;2023-10-31T06:35:05;6.90;;;1.13;;
27412;SDS011;14871;52.702;5.230;2023-10-31T06:37:31;5.53;;;1.05;;
27412;SDS011;14871;52.702;5.230;2023-10-31T06:39:56;2.10;;;0.70;;
27412;SDS011;14871;52.702;5.230;2023-10-31T06:42:22;7.25;;;0.88;;
27412;SDS011;14871;52.702;5.230;2023-10-31T06:44:47;7.03;;;1.20;;
27412;SDS011;14871;52.702;5.230;2023-10-31T06:47:13;6.05;;;1.05;;
27412;SDS011;14871;52.702;5.230;2023-10-31T06:49:39;5.03;;;0.90;;
27412;SDS011;14871;52.702;5.230;2023-10-31T06:52:05;3.70;;;0.93;;
27412;SDS011;14871;52.702;5.230;2023-10-31T06:54:30;2.00;;;0.73;;
27412;SDS011;14871;52.702;5.230;2023-10-31T06:56:56;5.82;;;1.10;;
27412;SDS011;14871;52.702;5.230;2023-10-31T06:59:22;3.85;;;1.10;;
27412;SDS011;14871;52.702;5.230;2023-10-31T07:01:47;7.78;;;0.98;;
27412;SDS011;14871;52.702;5.230;2023-10-31T07:04:13;5.40;;;1.23;;
27412;SDS011;14871;52.702;5.230;2023-10-31T07:06:39;1.92;;;0.73;;
27412;SDS011;14871;52.702;5.230;2023-10-31T07:09:04;9.70;;;1.23;;
27412;SDS011;14871;52.702;5.230;2023-10-31T07:11:30;4.10;;;1.08;;
27412;SDS011;14871;52.702;5.230;2023-10-31T07:14:00;6.47;;;1.70;;
27412;SDS011;14871;52.702;5.230;2023-10-31T07:16:27;6.22;;;0.90;;
27412;SDS011;14871;52.702;5.230;2023-10-31T07:18:53;6.07;;;0.75;;
27412;SDS011;14871;52.702;5.230;2023-10-31T07:21:19;2.38;;;0.90;;
27412;SDS011;14871;52.702;5.230;2023-10-31T07:23:45;2.15;;;0.88;;
27412;SDS011;14871;52.702;5.230;2023-10-31T07:26:11;5.28;;;0.70;;
27412;SDS011;14871;52.702;5.230;2023-10-31T07:28:36;1.67;;;0.70;;
27412;SDS011;14871;52.702;5.230;2023-10-31T07:31:02;4.13;;;1.00;;
27412;SDS011;14871;52.702;5.230;2023-10-31T07:33:28;3.78;;;0.90;;
27412;SDS011;14871;52.702;5.230;2023-10-31T07:35:54;3.67;;;0.75;;
27412;SDS011;14871;52.702;5.230;2023-10-31T07:38:19;3.40;;;1.15;;
27412;SDS011;14871;52.702;5.230;2023-10-31T07:40:45;1.75;;;1.13;;
27412;SDS011;14871;52.702;5.230;2023-10-31T07:43:10;3.50;;;1.13;;
27412;SDS011;14871;52.702;5.230;2023-10-31T07:45:36;3.88;;;1.08;;
27412;SDS011;14871;52.702;5.230;2023-10-31T07:48:02;1.73;;;0.88;;
27412;SDS011;14871;52.702;5.230;2023-10-31T07:50:27;4.63;;;1.15;;
27412;SDS011;14871;52.702;5.230;2023-10-31T07:52:53;4.97;;;0.90;;
27412;SDS011;14871;52.702;5.230;2023-10-31T07:55:19;3.33;;;1.13;;
27412;SDS011;14871;52.702;5.230;2023-10-31T07:57:44;7.78;;;1.23;;
27412;SDS011;14871;52.702;5.230;2023-10-31T08:00:10;5.22;;;1.10;;
27412;SDS011;14871;52.702;5.230;2023-10-31T08:02:36;5.30;;;1.52;;
27412;SDS011;14871;52.702;5.230;2023-10-31T08:05:02;4.80;;;1.92;;
27412;SDS011;14871;52.702;5.230;2023-10-31T08:07:28;5.00;;;1.90;;
27412;SDS011;14871;52.702;5.230;2023-10-31T08:09:55;6.50;;;1.60;;
27412;SDS011;14871;52.702;5.230;2023-10-31T08:12:21;5.10;;;1.23;;
27412;SDS011;14871;52.702;5.230;2023-10-31T08:14:47;1.92;;;0.70;;
27412;SDS011;14871;52.702;5.230;2023-10-31T08:17:13;2.45;;;0.88;;
27412;SDS011;14871;52.702;5.230;2023-10-31T08:19:39;4.80;;;0.90;;
27412;SDS011;14871;52.702;5.230;2023-10-31T08:22:04;2.55;;;0.50;;
27412;SDS011;14871;52.702;5.230;2023-10-31T08:24:30;3.72;;;0.60;;
27412;SDS011;14871;52.702;5.230;2023-10-31T08:26:55;4.00;;;0.60;;
27412;SDS011;14871;52.702;5.230;2023-10-31T08:29:21;3.67;;;0.80;;
27412;SDS011;14871;52.702;5.230;2023-10-31T08:31:47;3.33;;;0.70;;
27412;SDS011;14871;52.702;5.230;2023-10-31T08:34:12;2.67;;;0.63;;
27412;SDS011;14871;52.702;5.230;2023-10-31T08:36:38;5.25;;;1.10;;
27412;SDS011;14871;52.702;5.230;2023-10-31T08:39:03;2.55;;;0.77;;
27412;SDS011;14871;52.702;5.230;2023-10-31T08:41:29;2.33;;;0.75;;
27412;SDS011;14871;52.702;5.230;2023-10-31T08:43:55;2.50;;;0.60;;
27412;SDS011;14871;52.702;5.230;2023-10-31T08:46:20;1.65;;;0.60;;
27412;SDS011;14871;52.702;5.230;2023-10-31T08:48:47;4.03;;;0.60;;
27412;SDS011;14871;52.702;5.230;2023-10-31T08:51:12;3.33;;;0.63;;
27412;SDS011;14871;52.702;5.230;2023-10-31T08:53:38;2.40;;;0.30;;
27412;SDS011;14871;52.702;5.230;2023-10-31T08:56:03;4.68;;;0.70;;
27412;SDS011;14871;52.702;5.230;2023-10-31T08:58:29;2.13;;;0.45;;
27412;SDS011;14871;52.702;5.230;2023-10-31T09:00:55;4.32;;;0.80;;
27412;SDS011;14871;52.702;5.230;2023-10-31T09:03:20;7.28;;;0.75;;
27412;SDS011;14871;52.702;5.230;2023-10-31T09:05:46;2.58;;;0.60;;
27412;SDS011;14871;52.702;5.230;2023-10-31T09:08:12;5.97;;;0.50;;
27412;SDS011;14871;52.702;5.230;2023-10-31T09:10:37;2.58;;;0.47;;
27412;SDS011;14871;52.702;5.230;2023-10-31T09:13:03;3.38;;;0.60;;
27412;SDS011;14871;52.702;5.230;2023-10-31T09:15:30;3.83;;;0.60;;
27412;SDS011;14871;52.702;5.230;2023-10-31T09:17:55;2.83;;;0.77;;
27412;SDS011;14871;52.702;5.230;2023-10-31T09:20:21;5.03;;;0.80;;
27412;SDS011;14871;52.702;5.230;2023-10-31T09:22:46;1.38;;;0.55;;
27412;SDS011;14871;52.702;5.230;2023-10-31T09:25:12;2.65;;;0.60;;
27412;SDS011;14871;52.702;5.230;2023-10-31T09:27:40;1.30;;;0.35;;
27412;SDS011;14871;52.702;5.230;2023-10-31T09:30:06;3.28;;;0.50;;
27412;SDS011;14871;52.702;5.230;2023-10-31T09:32:32;4.57;;;0.45;;
27412;SDS011;14871;52.702;5.230;2023-10-31T09:34:58;4.75;;;0.60;;
27412;SDS011;14871;52.702;5.230;2023-10-31T09:37:24;2.20;;;0.35;;
27412;SDS011;14871;52.702;5.230;2023-10-31T09:39:49;3.42;;;0.65;;
27412;SDS011;14871;52.702;5.230;2023-10-31T09:42:15;1.02;;;0.65;;
27412;SDS011;14871;52.702;5.230;2023-10-31T09:44:40;3.33;;;0.40;;
27412;SDS011;14871;52.702;5.230;2023-10-31T09:47:06;4.05;;;0.60;;
27412;SDS011;14871;52.702;5.230;2023-10-31T09:49:32;7.70;;;0.57;;
27412;SDS011;14871;52.702;5.230;2023-10-31T09:51:58;3.08;;;0.47;;
27412;SDS011;14871;52.702;5.230;2023-10-31T09:54:25;2.45;;;0.68;;
27412;SDS011;14871;52.702;5.230;2023-10-31T09:56:52;0.60;;;0.20;;
27412;SDS011;14871;52.702;5.230;2023-10-31T09:59:17;2.03;;;0.20;;
27412;SDS011;14871;52.702;5.230;2023-10-31T10:01:43;1.85;;;0.30;;
27412;SDS011;14871;52.702;5.230;2023-10-31T10:04:09;1.75;;;0.30;;
27412;SDS011;14871;52.702;5.230;2023-10-31T10:06:39;2.47;;;0.50;;
27412;SDS011;14871;52.702;5.230;2023-10-31T10:09:14;2.17;;;0.30;;
27412;SDS011;14871;52.702;5.230;2023-10-31T10:11:40;1.48;;;0.22;;
27412;SDS011;14871;52.702;5.230;2023-10-31T10:14:05;2.45;;;0.40;;
27412;SDS011;14871;52.702;5.230;2023-10-31T10:16:34;1.38;;;0.45;;
27412;SDS011;14871;52.702;5.230;2023-10-31T10:19:14;3.22;;;1.08;;
27412;SDS011;14871;52.702;5.230;2023-10-31T10:21:51;1.70;;;0.30;;
27412;SDS011;14871;52.702;5.230;2023-10-31T10:24:21;0.88;;;0.32;;
27412;SDS011;14871;52.702;5.230;2023-10-31T10:26:48;2.38;;;0.45;;
27412;SDS011;14871;52.702;5.230;2023-10-31T10:29:14;2.35;;;0.30;;
27412;SDS011;14871;52.702;5.230;2023-10-31T10:31:40;1.35;;;0.50;;
27412;SDS011;14871;52.702;5.230;2023-10-31T10:34:07;3.50;;;0.38;;
27412;SDS011;14871;52.702;5.230;2023-10-31T10:36:33;3.15;;;0.20;;
27412;SDS011;14871;52.702;5.230;2023-10-31T10:38:59;4.65;;;0.35;;
27412;SDS011;14871;52.702;5.230;2023-10-31T10:41:26;2.45;;;0.30;;
27412;SDS011;14871;52.702;5.230;2023-10-31T10:43:55;1.52;;;0.30;;
27412;SDS011;14871;52.702;5.230;2023-10-31T10:46:28;2.80;;;0.40;;
27412;SDS011;14871;52.702;5.230;2023-10-31T10:48:58;3.05;;;0.50;;
27412;SDS011;14871;52.702;5.230;2023-10-31T10:51:25;1.00;;;0.30;;
27412;SDS011;14871;52.702;5.230;2023-10-31T10:54:05;1.25;;;0.30;;
27412;SDS011;14871;52.702;5.230;2023-10-31T10:56:38;0.70;;;0.40;;
27412;SDS011;14871;52.702;5.230;2023-10-31T10:59:19;3.33;;;0.30;;
27412;SDS011;14871;52.702;5.230;2023-10-31T11:01:46;1.98;;;0.50;;
27412;SDS011;14871;52.702;5.230;2023-10-31T11:04:14;1.55;;;0.50;;
27412;SDS011;14871;52.702;5.230;2023-10-31T11:06:41;2.65;;;0.50;;
27412;SDS011;14871;52.702;5.230;2023-10-31T11:09:09;3.35;;;0.40;;
27412;SDS011;14871;52.702;5.230;2023-10-31T11:11:38;1.20;;;0.25;;
27412;SDS011;14871;52.702;5.230;2023-10-31T11:14:05;2.50;;;0.20;;
27412;SDS011;14871;52.702;5.230;2023-10-31T11:19:36;0.90;;;0.22;;
27412;SDS011;14871;52.702;5.230;2023-10-31T11:22:02;4.40;;;0.98;;
27412;SDS011;14871;52.702;5.230;2023-10-31T11:24:33;1.27;;;0.20;;
27412;SDS011;14871;52.702;5.230;2023-10-31T11:27:02;1.20;;;0.30;;
27412;SDS011;14871;52.702;5.230;2023-10-31T11:29:30;3.95;;;0.68;;
27412;SDS011;14871;52.702;5.230;2023-10-31T11:31:57;1.13;;;0.20;;
27412;SDS011;14871;52.702;5.230;2023-10-31T11:34:23;1.83;;;0.30;;
27412;SDS011;14871;52.702;5.230;2023-10-31T11:36:51;1.13;;;0.40;;
27412;SDS011;14871;52.702;5.230;2023-10-31T11:39:21;1.77;;;0.22;;
27412;SDS011;14871;52.702;5.230;2023-10-31T11:41:55;2.30;;;0.20;;
27412;SDS011;14871;52.702;5.230;2023-10-31T11:44:27;3.35;;;0.25;;
27412;SDS011;14871;52.702;5.230;2023-10-31T11:46:53;1.33;;;0.40;;
27412;SDS011;14871;52.702;5.230;2023-10-31T11:52:16;1.70;;;0.30;;
27412;SDS011;14871;52.702;5.230;2023-10-31T11:54:42;1.95;;;0.60;;
27412;SDS011;14871;52.702;5.230;2023-10-31T11:57:08;3.42;;;0.38;;
27412;SDS011;14871;52.702;5.230;2023-10-31T11:59:37;1.63;;;0.40;;
27412;SDS011;14871;52.702;5.230;2023-10-31T12:02:15;2.03;;;0.47;;
27412;SDS011;14871;52.702;5.230;2023-10-31T12:04:43;2.35;;;0.40;;
27412;SDS011;14871;52.702;5.230;2023-10-31T12:07:09;1.90;;;0.20;;
27412;SDS011;14871;52.702;5.230;2023-10-31T12:09:47;0.52;;;0.20;;
27412;SDS011;14871;52.702;5.230;2023-10-31T12:12:13;1.05;;;0.20;;
27412;SDS011;14871;52.702;5.230;2023-10-31T12:14:39;2.60;;;0.40;;
27412;SDS011;14871;52.702;5.230;2023-10-31T12:17:05;1.13;;;0.40;;
27412;SDS011;14871;52.702;5.230;2023-10-31T12:19:34;1.05;;;0.20;;
27412;SDS011;14871;52.702;5.230;2023-10-31T12:22:00;1.75;;;0.38;;
27412;SDS011;14871;52.702;5.230;2023-10-31T12:24:26;1.90;;;0.20;;
27412;SDS011;14871;52.702;5.230;2023-10-31T12:26:52;0.35;;;0.10;;
27412;SDS011;14871;52.702;5.230;2023-10-31T12:29:19;3.25;;;0.20;;
27412;SDS011;14871;52.702;5.230;2023-10-31T12:31:52;0.93;;;0.30;;
27412;SDS011;14871;52.702;5.230;2023-10-31T12:34:22;1.92;;;0.20;;
27412;SDS011;14871;52.702;5.230;2023-10-31T12:36:49;1.10;;;0.20;;
27412;SDS011;14871;52.702;5.230;2023-10-31T12:39:16;1.33;;;0.22;;
27412;SDS011;14871;52.702;5.230;2023-10-31T12:41:45;0.82;;;0.20;;
27412;SDS011;14871;52.702;5.230;2023-10-31T12:44:12;0.70;;;0.15;;
27412;SDS011;14871;52.702;5.230;2023-10-31T12:46:42;1.63;;;0.13;;
27412;SDS011;14871;52.702;5.230;2023-10-31T12:49:11;1.77;;;0.38;;
27412;SDS011;14871;52.702;5.230;2023-10-31T12:51:56;1.58;;;0.20;;
27412;SDS011;14871;52.702;5.230;2023-10-31T12:54:56;2.15;;;0.20;;
27412;SDS011;14871;52.702;5.230;2023-10-31T12:57:14;1.83;;;0.20;;
27412;SDS011;14871;52.702;5.230;2023-10-31T12:59:40;1.30;;;0.52;;
27412;SDS011;14871;52.702;5.230;2023-10-31T13:02:06;1.40;;;0.30;;
27412;SDS011;14871;52.702;5.230;2023-10-31T13:04:32;2.47;;;0.22;;
27412;SDS011;14871;52.702;5.230;2023-10-31T13:06:59;3.08;;;0.30;;
27412;SDS011;14871;52.702;5.230;2023-10-31T13:09:29;0.95;;;0.40;;
27412;SDS011;14871;52.702;5.230;2023-10-31T13:12:00;3.03;;;0.30;;
27412;SDS011;14871;52.702;5.230;2023-10-31T13:14:27;4.47;;;0.47;;
27412;SDS011;14871;52.702;5.230;2023-10-31T13:16:52;1.48;;;0.30;;
27412;SDS011;14871;52.702;5.230;2023-10-31T13:19:18;1.75;;;0.20;;
27412;SDS011;14871;52.702;5.230;2023-10-31T13:21:44;1.75;;;0.40;;
27412;SDS011;14871;52.702;5.230;2023-10-31T13:24:10;3.00;;;0.20;;
27412;SDS011;14871;52.702;5.230;2023-10-31T13:26:35;1.65;;;0.20;;
27412;SDS011;14871;52.702;5.230;2023-10-31T13:29:01;1.15;;;0.28;;
27412;SDS011;14871;52.702;5.230;2023-10-31T13:31:27;1.27;;;0.10;;
27412;SDS011;14871;52.702;5.230;2023-10-31T13:33:52;0.98;;;0.28;;
27412;SDS011;14871;52.702;5.230;2023-10-31T13:36:18;2.63;;;0.30;;
27412;SDS011;14871;52.702;5.230;2023-10-31T13:38:45;2.22;;;0.52;;
27412;SDS011;14871;52.702;5.230;2023-10-31T13:41:11;2.85;;;0.50;;
27412;SDS011;14871;52.702;5.230;2023-10-31T13:43:37;1.55;;;0.47;;
27412;SDS011;14871;52.702;5.230;2023-10-31T13:46:03;1.13;;;0.20;;
27412;SDS011;14871;52.702;5.230;2023-10-31T13:48:29;2.70;;;0.30;;
27412;SDS011;14871;52.702;5.230;2023-10-31T13:50:54;2.60;;;0.28;;
27412;SDS011;14871;52.702;5.230;2023-10-31T13:53:20;0.52;;;0.20;;
27412;SDS011;14871;52.702;5.230;2023-10-31T13:55:45;3.92;;;0.30;;
27412;SDS011;14871;52.702;5.230;2023-10-31T13:58:11;1.25;;;0.22;;
27412;SDS011;14871;52.702;5.230;2023-10-31T14:00:37;1.10;;;0.10;;
27412;SDS011;14871;52.702;5.230;2023-10-31T14:03:02;1.88;;;0.20;;
27412;SDS011;14871;52.702;5.230;2023-10-31T14:05:28;3.20;;;0.25;;
27412;SDS011;14871;52.702;5.230;2023-10-31T14:07:53;0.98;;;0.30;;
27412;SDS011;14871;52.702;5.230;2023-10-31T14:10:19;3.28;;;0.40;;
27412;SDS011;14871;52.702;5.230;2023-10-31T14:12:48;0.73;;;0.40;;
27412;SDS011;14871;52.702;5.230;2023-10-31T14:15:13;1.45;;;0.25;;
27412;SDS011;14871;52.702;5.230;2023-10-31T14:17:39;2.13;;;0.40;;
27412;SDS011;14871;52.702;5.230;2023-10-31T14:20:05;1.48;;;0.30;;
27412;SDS011;14871;52.702;5.230;2023-10-31T14:22:31;3.63;;;0.30;;
27412;SDS011;14871;52.702;5.230;2023-10-31T14:24:57;1.63;;;0.63;;
27412;SDS011;14871;52.702;5.230;2023-10-31T14:27:22;1.65;;;0.38;;
27412;SDS011;14871;52.702;5.230;2023-10-31T14:29:48;2.35;;;0.28;;
27412;SDS011;14871;52.702;5.230;2023-10-31T14:32:14;2.53;;;0.60;;
27412;SDS011;14871;52.702;5.230;2023-10-31T14:34:39;1.55;;;0.63;;
27412;SDS011;14871;52.702;5.230;2023-10-31T14:37:05;0.68;;;0.40;;
27412;SDS011;14871;52.702;5.230;2023-10-31T14:39:31;1.17;;;0.47;;
27412;SDS011;14871;52.702;5.230;2023-10-31T14:41:57;2.80;;;0.57;;
27412;SDS011;14871;52.702;5.230;2023-10-31T14:44:22;2.38;;;0.65;;
27412;SDS011;14871;52.702;5.230;2023-10-31T14:46:48;3.85;;;0.63;;
27412;SDS011;14871;52.702;5.230;2023-10-31T14:49:14;2.00;;;0.40;;
27412;SDS011;14871;52.702;5.230;2023-10-31T14:51:39;3.38;;;0.50;;